Time;durP1;ratioP1;P1;durP2;ratioP2;P2;SDS_P1;SDS_P2;PMS_P1;PMS_P2;Temp;Humidity;BMP_temperature;BMP_pressure;BME280_temperature;BME280_humidity;BME280_pressure;Samples;Min_cycle;Max_cycle;Signal;HPM_P1;HPM_P2
2023/02/21 02:15:11;;;;;;;0.70;0.70;;;8.70;68.80;;;8.56;53.60;94867.03;5014541;28;20190;-17
2023/02/21 02:18:27;;;;;;;0.70;0.70;;;8.70;68.80;;;8.55;54.02;94860.19;5014904;28;20593;-17
2023/02/21 02:20:56;;;;;;;0.70;0.70;;;8.70;68.70;;;8.53;53.90;94851.72;5034010;28;20220;-17
2023/02/21 02:23:55;;;;;;;0.70;0.70;;;8.70;68.80;;;8.51;53.83;94858.94;5035113;28;20558;-17
2023/02/21 02:26:28;;;;;;;0.82;0.82;;;8.70;69.00;;;8.51;54.16;94858.94;5034350;28;20197;-17
2023/02/21 02:29:41;;;;;;;0.70;0.70;;;8.60;69.00;;;8.48;53.96;94859.28;5050416;28;20670;-17
2023/02/21 02:32:35;;;;;;;0.70;0.70;;;8.60;68.90;;;8.46;53.74;94869.09;5035119;28;20568;-17
2023/02/21 02:35:13;;;;;;;0.70;0.70;;;8.60;68.80;;;8.46;53.66;94869.09;5033739;28;20192;-17
2023/02/21 02:38:02;;;;;;;0.70;0.70;;;8.60;68.80;;;8.40;53.81;94869.78;5033850;28;20193;-17
2023/02/21 02:41:01;;;;;;;0.70;0.70;;;8.50;68.80;;;8.33;53.95;94878.34;5017536;28;20193;-17
2023/02/21 02:43:50;;;;;;;0.70;0.70;;;8.50;68.80;;;8.26;53.64;94868.78;5034974;28;20165;-17
2023/02/21 02:46:24;;;;;;;0.70;0.70;;;8.40;68.70;;;8.20;54.30;94867.69;5033993;28;20550;-17
2023/02/21 02:49:15;;;;;;;0.70;0.70;;;8.40;68.90;;;8.13;53.91;94862.38;5033671;28;20675;-17
2023/02/21 02:51:43;;;;;;;0.80;0.80;;;8.30;68.80;;;8.09;53.45;94868.13;5017694;28;20259;-17
2023/02/21 02:54:11;;;;;;;0.80;0.80;;;8.30;68.50;;;8.01;53.73;94861.19;5033846;28;20288;-17
2023/02/21 02:56:38;;;;;;;0.70;0.70;;;8.20;68.40;;;7.94;53.25;94883.78;5034467;28;20262;-17
2023/02/21 02:59:10;;;;;;;0.70;0.70;;;8.10;68.30;;;7.83;53.25;94885.00;5050238;28;20629;-17
2023/02/21 03:01:50;;;;;;;0.70;0.70;;;8.00;68.30;;;7.73;53.25;94882.63;5017304;28;20203;-17
2023/02/21 03:04:45;;;;;;;0.70;0.70;;;7.90;68.40;;;7.61;53.90;94871.78;5034309;28;20211;-17
2023/02/21 03:07:36;;;;;;;0.70;0.70;;;7.80;68.50;;;7.47;54.82;94862.09;5033970;28;20212;-17
2023/02/21 03:10:18;;;;;;;0.70;0.70;;;7.70;68.80;;;7.37;55.51;94859.69;5021025;28;20185;-17
2023/02/21 03:13:09;;;;;;;0.80;0.80;;;7.70;69.40;;;7.33;55.35;94866.25;5037333;28;20271;-17
2023/02/21 03:15:55;;;;;;;0.70;0.70;;;7.50;69.40;;;7.30;55.35;94856.16;5037220;28;20197;-17
2023/02/21 03:18:42;;;;;;;0.70;0.70;;;7.50;69.70;;;7.28;55.33;94866.78;5021524;28;20203;-17
2023/02/21 03:21:20;;;;;;;0.70;0.70;;;7.40;69.60;;;7.25;56.00;94869.75;5040538;28;20290;-17
2023/02/21 03:23:50;;;;;;;0.60;0.60;;;7.40;69.90;;;7.20;56.46;94862.44;5024022;28;20212;-18
2023/02/21 03:26:18;;;;;;;0.60;0.60;;;7.40;70.10;;;7.18;55.81;94859.16;5041395;28;20290;-17
2023/02/21 03:28:49;;;;;;;0.70;0.70;;;7.30;70.10;;;7.15;55.90;94861.31;5024437;28;20220;-17
2023/02/21 03:31:23;;;;;;;0.70;0.70;;;7.30;70.10;;;7.08;56.29;94857.75;5024484;28;20577;-17
2023/02/21 03:33:51;;;;;;;0.70;0.70;;;7.30;70.40;;;7.05;56.97;94864.97;5008270;28;20275;-17
2023/02/21 03:36:19;;;;;;;0.70;0.70;;;7.20;70.50;;;6.98;57.22;94864.00;5040689;28;20192;-17
2023/02/21 03:38:46;;;;;;;0.70;0.70;;;7.20;70.80;;;6.98;57.68;94871.00;5040512;28;20222;-17
2023/02/21 03:41:15;;;;;;;0.70;0.70;;;7.20;71.10;;;6.94;57.76;94875.75;5040109;28;20523;-17
2023/02/21 03:43:43;;;;;;;0.70;0.70;;;7.10;72.00;;;6.94;58.37;94874.94;5057899;28;20207;-17
2023/02/21 03:46:10;;;;;;;0.80;0.80;;;7.10;71.70;;;6.96;58.10;94879.00;5039950;28;20202;-17
2023/02/21 03:48:37;;;;;;;0.60;0.60;;;7.10;71.70;;;6.96;58.02;94873.00;5057515;28;20319;-17
2023/02/21 03:51:18;;;;;;;0.70;0.70;;;7.10;71.80;;;6.97;58.05;94865.00;5040195;28;20219;-17
2023/02/21 03:53:46;;;;;;;0.60;0.60;;;7.10;71.70;;;6.98;58.07;94871.00;5039859;28;20246;-17
2023/02/21 03:56:17;;;;;;;0.70;0.70;;;7.10;71.80;;;7.03;58.57;94876.50;5040420;28;20242;-17
2023/02/21 03:59:14;;;;;;;0.60;0.60;;;7.10;72.20;;;7.03;58.96;94874.75;5057546;28;20207;-17
2023/02/21 04:01:41;;;;;;;0.60;0.60;;;7.10;72.50;;;7.11;58.82;94875.69;5040203;28;20264;-17
2023/02/21 04:04:09;;;;;;;0.70;0.70;;;7.10;72.80;;;7.14;58.81;94877.94;5039928;28;20627;-17
2023/02/21 04:06:37;;;;;;;0.90;0.90;;;7.20;72.90;;;7.26;58.66;94884.38;5040115;28;20215;-17
2023/02/21 04:09:04;;;;;;;0.70;0.70;;;7.20;72.70;;;7.27;58.57;94883.41;5039497;28;20663;-18
2023/02/21 04:11:32;;;;;;;0.60;0.60;;;7.30;72.60;;;7.32;58.57;94888.13;5040451;28;20214;-17
2023/02/21 04:13:59;;;;;;;0.70;0.70;;;7.40;72.80;;;7.38;58.39;94890.03;5039705;28;20195;-18
2023/02/21 04:16:26;;;;;;;0.80;0.80;;;7.40;72.70;;;7.40;58.46;94895.91;5039466;28;20631;-18
2023/02/21 04:18:56;;;;;;;0.70;0.70;;;7.40;72.70;;;7.43;58.04;94905.97;5038734;28;20286;-18
2023/02/21 04:21:24;;;;;;;0.70;0.70;;;7.50;72.50;;;7.43;58.24;94892.94;5039632;28;20204;-17
2023/02/21 04:23:54;;;;;;;0.70;0.70;;;7.50;72.50;;;7.47;58.02;94901.22;5023513;28;20196;-18
2023/02/21 04:26:24;;;;;;;0.70;0.70;;;7.60;72.40;;;7.48;58.01;94897.63;5023651;28;20204;-17
2023/02/21 04:28:52;;;;;;;0.60;0.60;;;7.60;72.30;;;7.48;58.07;94901.06;5056613;28;20212;-17
2023/02/21 04:31:20;;;;;;;0.70;0.70;;;7.60;72.30;;;7.45;58.50;94896.19;5039089;28;20635;-18
2023/02/21 04:33:48;;;;;;;0.68;0.68;;;7.60;72.50;;;7.43;58.84;94900.75;5039667;28;20269;-17
2023/02/21 04:36:29;;;;;;;0.70;0.70;;;7.60;72.60;;;7.45;58.68;94898.00;5039047;28;20203;-18
2023/02/21 04:38:57;;;;;;;0.60;0.60;;;7.60;72.60;;;7.41;59.08;94897.53;5039003;28;20208;-17
2023/02/21 04:41:24;;;;;;;0.65;0.65;;;7.60;72.90;;;7.42;59.48;94893.13;5056472;28;20198;-17
2023/02/21 04:43:52;;;;;;;0.80;0.80;;;7.60;73.10;;;7.41;59.83;94894.91;5038844;28;20203;-17
2023/02/21 04:46:20;;;;;;;0.70;0.70;;;7.60;73.50;;;7.40;60.13;94898.50;5038813;28;20717;-17
2023/02/21 04:48:50;;;;;;;0.70;0.70;;;7.60;74.10;;;7.44;60.23;94891.16;5038620;28;20265;-17
2023/02/21 04:51:20;;;;;;;0.70;0.70;;;7.60;74.10;;;7.44;59.54;94894.56;5057447;28;20560;-18
2023/02/21 04:53:49;;;;;;;0.60;0.60;;;7.60;73.60;;;7.44;59.77;94897.16;5056548;28;20176;-17
2023/02/21 04:56:22;;;;;;;0.60;0.60;;;7.50;73.80;;;7.44;60.87;94896.38;5056214;28;20203;-18
2023/02/21 04:58:50;;;;;;;0.70;0.70;;;7.60;74.20;;;7.43;60.85;94892.94;5056213;28;20267;-17
2023/02/21 05:01:19;;;;;;;0.77;0.77;;;7.60;74.20;;;7.45;61.33;94887.56;5056389;28;20265;-17
2023/02/21 05:03:47;;;;;;;0.70;0.70;;;7.60;74.20;;;7.42;61.23;94893.94;5056085;28;20271;-19
2023/02/21 05:06:24;;;;;;;0.70;0.70;;;7.60;75.00;;;7.40;61.62;94888.06;5056547;28;20199;-18
2023/02/21 05:08:51;;;;;;;0.70;0.70;;;7.50;74.60;;;7.40;61.75;94884.63;5055756;28;20200;-17
2023/02/21 05:11:20;;;;;;;0.70;0.70;;;7.50;74.80;;;7.37;62.15;94899.66;5056021;28;20188;-17
2023/02/21 05:13:47;;;;;;;0.73;0.73;;;7.60;75.10;;;7.39;61.79;94890.88;5056369;28;20212;-17
2023/02/21 05:16:15;;;;;;;0.70;0.70;;;7.60;75.10;;;7.39;61.16;94890.88;5055811;28;20216;-17
2023/02/21 05:18:45;;;;;;;0.70;0.70;;;7.50;74.80;;;7.37;61.53;94891.00;5055607;28;20270;-18
2023/02/21 05:21:14;;;;;;;0.70;0.70;;;7.60;75.10;;;7.34;61.40;94897.38;5055733;28;20207;-18
2023/02/21 05:23:54;;;;;;;0.70;0.70;;;7.50;74.90;;;7.31;61.45;94905.56;5038842;28;20184;-18
2023/02/21 05:26:35;;;;;;;0.70;0.70;;;7.50;74.90;;;7.26;61.60;94900.03;5040278;28;20219;-17
2023/02/21 05:29:03;;;;;;;0.70;0.70;;;7.40;74.90;;;7.27;61.48;94906.09;5055485;28;20208;-17
2023/02/21 05:31:30;;;;;;;0.70;0.70;;;7.40;75.00;;;7.27;61.47;94909.50;5054993;28;20192;-18
2023/02/21 05:33:57;;;;;;;0.70;0.70;;;7.40;75.00;;;7.26;61.38;94910.47;5055744;28;20290;-17
2023/02/21 05:36:25;;;;;;;0.70;0.70;;;7.40;75.00;;;7.21;61.85;94911.00;5055452;28;20522;-17
2023/02/21 05:38:54;;;;;;;0.80;0.80;;;7.40;75.00;;;7.18;62.82;94913.94;5055416;28;20628;-17
2023/02/21 05:41:23;;;;;;;0.70;0.70;;;7.40;75.70;;;7.15;63.11;94909.09;5055363;28;20286;-17
2023/02/21 05:43:50;;;;;;;0.70;0.70;;;7.30;75.90;;;7.17;63.04;94908.91;5038331;28;20211;-17
2023/02/21 05:46:33;;;;;;;0.60;0.60;;;7.30;75.90;;;7.22;62.65;94903.97;5055515;28;20531;-18
2023/02/21 05:49:03;;;;;;;0.65;0.65;;;7.30;75.80;;;7.17;62.75;94895.88;5055168;28;20200;-17
2023/02/21 05:51:42;;;;;;;0.70;0.70;;;7.30;76.00;;;7.18;62.83;94897.50;5055200;28;20196;-18
2023/02/21 05:54:19;;;;;;;0.60;0.60;;;7.40;76.10;;;7.16;62.59;94904.66;5055232;28;20215;-18
2023/02/21 05:56:49;;;;;;;0.70;0.70;;;7.40;76.00;;;7.15;62.59;94906.47;5055666;28;20636;-18
2023/02/21 05:59:19;;;;;;;0.70;0.70;;;7.40;75.80;;;7.14;62.73;94906.63;5037802;28;20184;-18
2023/02/21 06:01:48;;;;;;;0.80;0.80;;;7.30;75.90;;;7.09;62.86;94914.94;5037836;28;20535;-18
2023/02/21 06:04:16;;;;;;;0.70;0.70;;;7.30;76.10;;;7.10;62.87;94908.75;5055092;28;20527;-19
2023/02/21 06:06:44;;;;;;;0.70;0.70;;;7.30;76.00;;;7.09;62.60;94909.75;5055274;28;20192;-18
2023/02/21 06:09:11;;;;;;;0.70;0.70;;;7.30;75.90;;;7.08;62.19;94915.13;5055521;28;20212;-18
2023/02/21 06:11:39;;;;;;;0.60;0.60;;;7.30;75.80;;;7.07;63.04;94901.28;5054964;28;20192;-18
2023/02/21 06:14:14;;;;;;;0.70;0.70;;;7.30;75.90;;;7.03;63.22;94910.41;5054909;28;20192;-18
2023/02/21 06:16:41;;;;;;;0.70;0.70;;;7.30;76.20;;;7.04;63.57;94915.50;5055151;28;20192;-18
2023/02/21 06:19:11;;;;;;;0.80;0.80;;;7.30;76.40;;;7.06;63.25;94912.69;5054659;28;20243;-18
2023/02/21 06:21:41;;;;;;;0.60;0.60;;;7.30;76.30;;;7.07;63.53;94916.09;5055133;28;20222;-18
2023/02/21 06:24:10;;;;;;;0.70;0.70;;;7.20;76.40;;;7.08;63.05;94921.19;5055117;28;20593;-20
2023/02/21 06:26:38;;;;;;;0.60;0.60;;;7.20;76.30;;;7.08;63.46;94921.19;5054778;28;20612;-18
2023/02/21 06:29:05;;;;;;;0.80;0.80;;;7.30;76.50;;;7.09;63.62;94930.59;5054543;28;20216;-18
2023/02/21 06:31:32;;;;;;;0.63;0.63;;;7.30;76.50;;;7.13;63.80;94934.50;5054728;28;20195;-18
2023/02/21 06:34:00;;;;;;;0.70;0.70;;;7.30;76.60;;;7.17;63.69;94935.00;5054705;28;20565;-18
2023/02/21 06:36:28;;;;;;;0.60;0.60;;;7.40;76.90;;;7.18;64.01;94932.19;5054931;28;20192;-18
2023/02/21 06:38:57;;;;;;;0.70;0.70;;;7.40;77.00;;;7.18;64.16;94936.63;5054517;28;20195;-18
2023/02/21 06:41:30;;;;;;;0.70;0.70;;;7.40;77.10;;;7.25;64.19;94936.75;5054661;28;20275;-18
2023/02/21 06:43:58;;;;;;;0.70;0.70;;;7.40;77.30;;;7.22;64.46;94927.47;5058891;28;20195;-18
2023/02/21 06:46:28;;;;;;;0.70;0.70;;;7.50;77.50;;;7.27;64.62;94927.75;5041381;28;20556;-20
2023/02/21 06:48:56;;;;;;;0.60;0.60;;;7.50;77.70;;;7.33;64.65;94927.06;5058744;28;20231;-18
2023/02/21 06:51:28;;;;;;;0.70;0.70;;;7.50;77.60;;;7.40;64.27;94936.81;5058483;28;20627;-18
2023/02/21 06:53:57;;;;;;;0.60;0.60;;;7.60;77.50;;;7.46;64.62;94942.19;5058592;28;20184;-18
2023/02/21 06:56:24;;;;;;;0.50;0.50;;;7.60;77.70;;;7.48;64.63;94936.78;5058469;28;20511;-18
2023/02/21 06:58:51;;;;;;;0.70;0.70;;;7.70;77.80;;;7.52;65.09;94936.28;5058486;28;20204;-20
2023/02/21 07:01:18;;;;;;;0.60;0.60;;;7.70;78.00;;;7.58;65.11;94940.00;5058718;28;20196;-18
2023/02/21 07:03:46;;;;;;;0.70;0.70;;;7.80;78.20;;;7.62;64.92;94941.28;5058577;28;20530;-18
2023/02/21 07:06:13;;;;;;;0.80;0.80;;;7.80;78.30;;;7.71;64.92;94947.25;5058303;28;20530;-20
2023/02/21 07:08:40;;;;;;;0.68;0.68;;;7.80;78.30;;;7.76;64.90;94962.41;5058023;28;20222;-18
2023/02/21 07:11:08;;;;;;;0.60;0.60;;;7.90;78.20;;;7.84;64.71;94957.13;5058243;28;20568;-18
2023/02/21 07:13:35;;;;;;;0.60;0.60;;;8.00;78.30;;;7.93;64.67;94952.66;5058430;28;20536;-18
2023/02/21 07:16:03;;;;;;;0.70;0.70;;;8.10;78.30;;;7.95;64.52;94956.72;5058176;28;20188;-18
2023/02/21 07:18:31;;;;;;;0.60;0.60;;;8.10;78.20;;;8.04;64.64;94960.09;5057809;28;20200;-18
2023/02/21 07:20:59;;;;;;;0.80;0.80;;;8.20;78.20;;;8.15;64.53;94953.63;5040951;28;20184;-18
2023/02/21 07:23:26;;;;;;;0.60;0.60;;;8.30;78.30;;;8.22;64.26;94949.34;5058291;28;20233;-18
2023/02/21 07:25:53;;;;;;;0.60;0.60;;;8.40;78.20;;;8.32;63.98;94955.16;5058510;28;20191;-18
2023/02/21 07:28:20;;;;;;;0.70;0.70;;;8.40;78.10;;;8.39;63.94;94962.28;5057980;28;20192;-18
2023/02/21 07:30:47;;;;;;;0.70;0.70;;;8.50;78.10;;;8.43;63.85;94966.16;5058136;28;20635;-18
2023/02/21 07:33:15;;;;;;;0.80;0.80;;;8.50;78.00;;;8.52;63.75;94966.91;5058606;28;20187;-18
2023/02/21 07:35:42;;;;;;;0.70;0.70;;;8.60;77.90;;;8.59;63.97;94967.84;5057984;28;20199;-18
2023/02/21 07:38:09;;;;;;;0.70;0.70;;;8.70;77.90;;;8.77;63.58;94970.13;5058008;28;20497;-18
2023/02/21 07:40:36;;;;;;;0.60;0.60;;;8.90;78.00;;;8.89;62.94;94980.97;5057543;28;20215;-17
2023/02/21 07:43:03;;;;;;;0.60;0.60;;;9.00;77.70;;;9.00;62.65;94966.63;5057910;28;20249;-18
2023/02/21 07:45:31;;;;;;;0.60;0.60;;;9.10;77.50;;;9.16;62.32;94987.34;5040226;28;20517;-18
2023/02/21 07:47:58;;;;;;;0.70;0.70;;;9.30;77.30;;;9.25;62.02;94981.03;5057524;28;20218;-18
2023/02/21 07:50:25;;;;;;;0.70;0.70;;;9.40;77.10;;;9.32;61.75;94982.94;5057287;28;20654;-18
2023/02/21 07:52:52;;;;;;;0.80;0.80;;;9.50;76.80;;;9.35;61.20;94986.00;5057726;28;20195;-18
2023/02/21 07:55:20;;;;;;;0.80;0.80;;;9.60;76.50;;;9.36;61.36;94979.78;5056540;28;20198;-18
2023/02/21 07:57:47;;;;;;;0.60;0.60;;;9.60;76.30;;;9.40;61.43;94988.88;5040324;28;20536;-18
2023/02/21 08:00:14;;;;;;;0.60;0.60;;;9.70;76.30;;;9.53;61.12;94993.47;5057125;28;20196;-19
2023/02/21 08:02:50;;;;;;;0.60;0.60;;;9.70;76.30;;;9.56;60.42;95003.56;5057517;28;20207;-19
2023/02/21 08:05:19;;;;;;;0.70;0.70;;;9.80;75.70;;;9.65;60.38;94998.22;5057538;28;20615;-18
2023/02/21 08:07:46;;;;;;;0.70;0.70;;;9.90;75.70;;;9.74;60.13;95000.56;5057446;28;20277;-18
2023/02/21 08:10:25;;;;;;;0.82;0.82;;;9.90;75.70;;;9.81;60.48;94986.72;5056840;28;20239;-18
2023/02/21 08:12:52;;;;;;;0.63;0.63;;;10.00;74.60;;;9.89;60.08;94994.47;5057901;28;20186;-18
2023/02/21 08:15:19;;;;;;;0.70;0.70;;;10.10;74.60;;;9.99;59.88;94997.59;5057053;28;20191;-18
2023/02/21 08:17:50;;;;;;;0.75;0.75;;;10.20;74.60;;;10.04;59.54;94999.66;5057084;28;20203;-18
2023/02/21 08:20:18;;;;;;;0.60;0.60;;;10.30;74.20;;;10.05;59.56;94999.47;5056755;28;20265;-18
2023/02/21 08:22:45;;;;;;;0.68;0.68;;;10.30;74.20;;;10.16;59.80;95002.63;5057124;28;20550;-18
2023/02/21 08:25:15;;;;;;;0.80;0.80;;;10.40;74.20;;;10.26;59.50;95005.72;5039827;28;20268;-18
2023/02/21 08:27:43;;;;;;;0.60;0.60;;;10.50;74.30;;;10.32;59.37;94989.25;5057089;28;20690;-18
2023/02/21 08:30:15;;;;;;;0.68;0.68;;;10.60;74.00;;;10.41;58.75;94996.00;5056526;28;20215;-18
2023/02/21 08:32:47;;;;;;;0.70;0.70;;;10.70;73.60;;;10.45;59.01;94985.97;5057249;28;20645;-18
2023/02/21 08:35:15;;;;;;;0.70;0.70;;;10.70;73.50;;;10.54;58.29;94989.25;5056676;28;20187;-19
2023/02/21 08:37:47;;;;;;;0.68;0.68;;;10.80;73.30;;;10.62;58.48;94983.06;5056801;28;20191;-18
2023/02/21 08:40:18;;;;;;;0.75;0.75;;;10.90;73.30;;;10.71;57.40;94993.22;5039734;28;20270;-18
2023/02/21 08:42:50;;;;;;;0.65;0.65;;;11.00;72.60;;;10.81;57.01;94984.22;5056519;28;20184;-19
2023/02/21 08:45:20;;;;;;;0.60;0.60;;;11.00;72.30;;;10.81;57.23;94992.09;5056775;28;20183;-18
2023/02/21 08:47:47;;;;;;;0.70;0.70;;;11.10;72.50;;;10.88;56.87;94999.00;5056518;28;20183;-18
2023/02/21 08:50:15;;;;;;;0.60;0.60;;;11.10;72.20;;;10.96;56.48;94995.44;5056003;28;20204;-18
2023/02/21 08:52:42;;;;;;;0.70;0.70;;;11.20;71.70;;;10.97;56.03;94994.41;5056592;28;20226;-18
2023/02/21 08:55:09;;;;;;;0.70;0.70;;;11.30;71.50;;;11.04;56.38;94984.75;5056278;28;20191;-18
2023/02/21 08:57:36;;;;;;;0.70;0.70;;;11.40;71.70;;;11.14;55.88;94984.41;5056227;28;20219;-18
2023/02/21 09:00:09;;;;;;;0.70;0.70;;;11.50;71.20;;;11.16;55.87;94987.66;5038721;28;20253;-18
2023/02/21 09:02:40;;;;;;;0.60;0.60;;;11.50;71.10;;;11.23;55.57;94977.22;5056489;28;20633;-18
2023/02/21 09:05:25;;;;;;;0.70;0.70;;;11.60;70.90;;;11.26;55.69;94981.25;5056684;28;20581;-18
2023/02/21 09:07:57;;;;;;;0.60;0.60;;;11.60;70.90;;;11.28;54.71;94977.44;5056068;28;20286;-18
2023/02/21 09:10:32;;;;;;;0.60;0.60;;;11.60;70.20;;;11.20;55.29;94981.03;5055925;28;20211;-18
2023/02/21 09:13:01;;;;;;;0.70;0.70;;;11.60;70.40;;;11.23;54.56;94979.00;5056055;28;20179;-18
2023/02/21 09:15:28;;;;;;;0.70;0.70;;;11.60;70.10;;;11.32;55.05;94986.53;5038827;28;20265;-18
2023/02/21 09:17:55;;;;;;;0.60;0.60;;;11.60;70.50;;;11.43;54.98;94974.66;5056071;28;20214;-18
2023/02/21 09:20:25;;;;;;;0.60;0.60;;;11.70;70.40;;;11.52;53.92;94970.88;5055533;28;20682;-18
2023/02/21 09:22:52;;;;;;;0.70;0.70;;;11.80;69.90;;;11.62;54.05;94986.28;5056024;28;20363;-18
2023/02/21 09:25:23;;;;;;;0.70;0.70;;;11.80;69.90;;;11.63;53.60;94977.38;5055985;28;20211;-18
2023/02/21 09:27:52;;;;;;;0.70;0.70;;;11.90;69.60;;;11.71;53.63;94984.28;5056281;28;20180;-18
2023/02/21 09:30:25;;;;;;;0.65;0.65;;;12.00;69.60;;;11.76;54.58;94978.44;5038606;28;20593;-18
2023/02/21 09:32:53;;;;;;;0.70;0.70;;;12.00;70.00;;;11.82;53.67;94959.25;5055849;28;20179;-18
2023/02/21 09:35:21;;;;;;;0.70;0.70;;;12.10;69.70;;;11.79;53.43;94973.59;5055808;28;20195;-18
2023/02/21 09:37:49;;;;;;;0.70;0.70;;;12.10;69.20;;;11.77;53.77;94967.72;5055483;28;20202;-18
2023/02/21 09:40:34;;;;;;;0.70;0.70;;;12.10;69.30;;;11.85;53.91;94969.34;5038112;28;20623;-18
2023/02/21 09:43:05;;;;;;;0.60;0.60;;;12.20;69.60;;;11.89;54.45;94967.13;5055684;28;20526;-18
2023/02/21 09:45:35;;;;;;;0.60;0.60;;;12.20;69.90;;;12.00;54.11;94972.66;5055974;28;20211;-19
2023/02/21 09:48:11;;;;;;;0.60;0.60;;;12.30;70.00;;;12.22;53.68;94969.06;5055820;28;20587;-18
2023/02/21 09:50:45;;;;;;;0.80;0.80;;;12.40;69.70;;;12.30;52.99;94961.81;5037800;28;20253;-18
2023/02/21 09:53:20;;;;;;;0.60;0.60;;;12.50;69.20;;;12.35;53.80;94958.53;5038251;28;20195;-18
2023/02/21 09:55:50;;;;;;;0.70;0.70;;;12.60;69.60;;;12.40;53.05;94969.28;5037870;28;20186;-18
2023/02/21 09:58:19;;;;;;;0.70;0.70;;;12.70;69.00;;;12.37;52.73;94966.25;5038413;28;20190;-18
2023/02/21 10:00:47;;;;;;;0.70;0.70;;;12.60;68.70;;;12.29;53.15;94990.91;5055148;28;20582;-18
2023/02/21 10:03:45;;;;;;;0.70;0.70;;;12.60;68.90;;;12.16;52.94;94953.06;5037499;28;20257;-18
2023/02/21 10:06:38;;;;;;;0.70;0.70;;;12.50;68.90;;;12.19;53.33;94962.38;5038793;28;20290;-18
2023/02/21 10:09:26;;;;;;;0.70;0.70;;;12.40;69.20;;;12.21;53.17;94956.94;5022125;28;20179;-18
2023/02/21 10:12:02;;;;;;;0.60;0.60;;;12.50;68.90;;;12.28;54.33;94955.91;5024122;28;20191;-19
2023/02/21 10:14:33;;;;;;;0.60;0.60;;;12.50;69.60;;;12.38;53.32;94947.63;5055264;28;20587;-18
2023/02/21 10:17:25;;;;;;;0.60;0.60;;;12.60;69.30;;;12.51;53.53;94953.91;5037227;28;20180;-18
2023/02/21 10:19:59;;;;;;;0.60;0.60;;;12.70;69.40;;;12.63;53.47;94945.22;5037398;28;20254;-18
2023/02/21 10:22:33;;;;;;;0.60;0.60;;;12.70;69.20;;;12.70;51.42;94962.81;5038097;28;20198;-18
2023/02/21 10:25:30;;;;;;;0.70;0.70;;;12.80;68.10;;;12.68;51.50;94952.47;5037258;28;20282;-18
2023/02/21 10:27:59;;;;;;;0.70;0.70;;;12.90;68.00;;;12.67;51.41;94953.50;5037873;28;20190;-18
2023/02/21 10:30:36;;;;;;;0.70;0.70;;;12.90;67.70;;;12.69;51.70;94940.13;5054526;28;20212;-18
2023/02/21 10:33:05;;;;;;;0.60;0.60;;;12.90;68.20;;;12.67;51.36;94950.88;5038423;28;20266;-18
2023/02/21 10:35:37;;;;;;;0.60;0.60;;;12.90;67.80;;;12.73;51.80;94951.84;5054703;28;20694;-18
2023/02/21 10:38:15;;;;;;;0.60;0.60;;;12.90;68.20;;;12.82;51.60;94977.75;5055282;28;20188;-18
2023/02/21 10:40:59;;;;;;;0.70;0.70;;;12.90;68.10;;;12.84;50.93;94951.25;5037254;28;20353;-18
2023/02/21 10:43:34;;;;;;;0.60;0.60;;;13.00;67.60;;;12.89;52.21;94954.06;5037567;28;20201;-18
2023/02/21 10:46:14;;;;;;;0.70;0.70;;;13.00;68.30;;;12.96;51.06;94954.06;5037371;28;20180;-18
2023/02/21 10:48:43;;;;;;;0.60;0.60;;;13.10;67.70;;;13.04;50.86;94956.47;5037637;28;20577;-18
2023/02/21 10:51:27;;;;;;;0.70;0.70;;;13.10;67.70;;;13.17;49.76;94968.81;5037113;28;20211;-19
2023/02/21 10:54:19;;;;;;;0.57;0.57;;;13.20;66.90;;;13.13;49.89;94957.88;5054888;28;20176;-17
2023/02/21 10:56:50;;;;;;;0.70;0.70;;;13.30;67.00;;;13.23;49.79;94970.63;5054829;28;20615;-19
2023/02/21 10:59:33;;;;;;;0.60;0.60;;;13.40;66.80;;;13.27;49.89;94968.38;5037528;28;20194;-19
2023/02/21 11:02:08;;;;;;;0.52;0.52;;;13.50;66.90;;;13.38;49.34;94962.50;5037409;28;20199;-19
2023/02/21 11:04:35;;;;;;;0.60;0.60;;;13.50;67.30;;;13.46;49.29;94940.38;5037395;28;20210;-20
2023/02/21 11:07:08;;;;;;;0.50;0.50;;;13.60;66.50;;;13.53;48.98;94949.06;5054406;28;20192;-19
2023/02/21 11:09:44;;;;;;;0.50;0.50;;;13.70;66.20;;;13.68;49.73;94943.50;5020981;28;20533;-19
2023/02/21 11:12:14;;;;;;;0.70;0.70;;;13.80;66.70;;;13.81;48.85;94942.66;5054720;28;20183;-19
2023/02/21 11:14:50;;;;;;;0.50;0.50;;;13.90;66.00;;;13.84;48.26;94931.69;5054375;28;20187;-19
2023/02/21 11:17:22;;;;;;;0.60;0.60;;;14.00;65.50;;;13.77;48.91;94928.28;5054630;28;20242;-19
2023/02/21 11:20:19;;;;;;;0.50;0.50;;;14.00;65.70;;;13.73;48.67;94945.53;5053996;28;20235;-19
2023/02/21 11:22:48;;;;;;;0.77;0.77;;;14.00;65.30;;;13.65;49.15;94940.50;5054446;28;20195;-19
2023/02/21 11:25:30;;;;;;;0.60;0.60;;;14.00;65.70;;;13.73;49.29;94921.78;5036897;28;20191;-21
2023/02/21 11:28:08;;;;;;;0.60;0.60;;;14.00;65.90;;;13.83;49.28;94931.88;5054820;28;20195;-19
2023/02/21 11:30:42;;;;;;;0.70;0.70;;;14.00;66.00;;;13.91;48.84;94915.81;5057333;28;20224;-19
2023/02/21 11:33:10;;;;;;;0.50;0.50;;;14.10;65.80;;;13.91;48.46;94931.63;5057989;28;20515;-19
2023/02/21 11:35:45;;;;;;;0.50;0.50;;;14.10;65.40;;;14.03;48.59;94921.22;5058186;28;20206;-19
2023/02/21 11:38:44;;;;;;;0.60;0.60;;;14.20;65.70;;;14.11;48.10;94918.34;5057850;28;20603;-22
2023/02/21 11:41:35;;;;;;;0.50;0.50;;;14.30;65.60;;;14.26;47.79;94918.03;5040816;28;20509;-19
2023/02/21 11:44:27;;;;;;;0.70;0.70;;;14.40;65.60;;;14.37;47.96;94912.03;5058388;28;20262;-35
2023/02/21 11:47:15;;;;;;;0.50;0.50;;;14.60;65.20;;;14.50;47.32;94912.94;5057712;28;20192;-19
2023/02/21 11:50:07;;;;;;;0.60;0.60;;;14.70;65.10;;;14.63;47.18;94904.91;5058289;28;20583;-35
2023/02/21 11:52:45;;;;;;;0.60;0.60;;;14.90;64.60;;;14.80;47.30;94899.13;5040675;28;20183;-15
2023/02/21 11:55:21;;;;;;;0.60;0.60;;;15.00;64.40;;;14.95;46.38;94904.88;5024469;28;20195;-19
2023/02/21 11:58:24;;;;;;;0.63;0.63;;;15.30;64.10;;;15.17;46.21;94901.75;5058644;28;20186;-20
2023/02/21 12:01:04;;;;;;;0.60;0.60;;;15.60;64.20;;;15.53;45.88;94902.78;5057653;28;20184;-20
2023/02/21 12:03:48;;;;;;;0.70;0.70;;;16.00;63.50;;;16.02;45.52;94886.09;5040398;28;20519;-20
2023/02/21 12:06:50;;;;;;;0.50;0.50;;;16.50;63.60;;;16.51;42.65;94891.22;5039807;28;20614;-28
2023/02/21 12:10:05;;;;;;;0.55;0.55;;;17.00;61.70;;;16.81;43.53;94875.22;5040635;28;20225;-22
2023/02/21 12:13:15;;;;;;;0.55;0.55;;;17.40;62.70;;;17.00;43.51;94885.69;5050547;28;20215;-19
2023/02/21 12:16:10;;;;;;;0.40;0.40;;;17.70;61.70;;;17.10;42.37;94876.13;5040130;28;20175;-19
2023/02/21 12:19:29;;;;;;;0.60;0.60;;;17.80;60.90;;;17.05;41.14;94868.06;5057733;28;20619;-19
2023/02/21 12:22:20;;;;;;;0.57;0.57;;;17.90;61.20;;;16.82;42.42;94884.78;5046624;28;20211;-20
2023/02/21 12:25:21;;;;;;;0.60;0.60;;;17.80;60.30;;;16.63;42.81;94876.94;5057362;28;20226;-20
2023/02/21 12:28:16;;;;;;;0.57;0.57;;;17.60;60.90;;;16.56;43.29;94878.09;5039787;28;20621;-20
2023/02/21 12:31:02;;;;;;;0.50;0.50;;;17.40;61.40;;;16.49;43.20;94886.94;5056990;28;20261;-20
2023/02/21 12:33:41;;;;;;;0.60;0.60;;;17.30;60.90;;;16.35;42.65;94876.81;5056955;28;20176;-19
2023/02/21 12:36:21;;;;;;;0.60;0.60;;;17.10;60.70;;;16.29;43.47;94868.72;5039684;28;20203;-20
2023/02/21 12:39:06;;;;;;;0.40;0.40;;;17.00;61.10;;;16.30;43.80;94869.56;5039731;28;20526;-20
2023/02/21 12:42:24;;;;;;;0.60;0.60;;;16.90;61.00;;;16.28;43.37;94871.63;5056513;28;20179;-21
2023/02/21 12:45:22;;;;;;;0.50;0.50;;;16.80;61.00;;;16.28;44.32;94863.69;5049220;28;20222;-19
2023/02/21 12:48:11;;;;;;;0.52;0.52;;;16.70;61.50;;;16.27;43.87;94859.41;5039673;28;20206;-20
2023/02/21 12:50:42;;;;;;;0.50;0.50;;;16.70;61.50;;;16.33;43.72;94855.84;5056601;28;20642;-19
2023/02/21 12:53:36;;;;;;;0.70;0.70;;;16.70;60.90;;;16.45;44.55;94848.75;5039100;28;20606;-19
2023/02/21 12:56:15;;;;;;;0.50;0.50;;;16.80;61.90;;;16.68;43.24;94843.66;5056659;28;20195;-19
2023/02/21 12:58:55;;;;;;;0.55;0.55;;;16.90;61.00;;;17.33;44.29;94845.28;5022751;28;20176;-19
2023/02/21 13:01:27;;;;;;;0.40;0.40;;;17.10;62.60;;;18.35;41.61;94834.06;5056299;28;20181;-20
2023/02/21 13:04:37;;;;;;;0.40;0.40;;;17.70;61.70;;;19.56;41.22;94836.94;5039355;28;20187;-20
2023/02/21 13:07:24;;;;;;;0.50;0.50;;;18.60;61.80;;;20.88;38.11;94832.16;5055139;28;20533;-19
2023/02/21 13:09:58;;;;;;;0.40;0.40;;;19.80;61.70;;;21.99;37.06;94825.84;5039776;28;20193;-21
2023/02/21 13:13:22;;;;;;;0.60;0.60;;;21.00;59.70;;;22.92;35.02;94823.09;5038544;28;20196;-20
2023/02/21 13:15:52;;;;;;;0.30;0.30;;;22.10;59.90;;;23.24;34.00;94830.00;4975784;28;20206;-20